Time;durP1;ratioP1;P1;durP2;ratioP2;P2;SDS_P1;SDS_P2;PMS_P1;PMS_P2;Temp;Humidity;BMP_temperature;BMP_pressure;BME280_temperature;BME280_humidity;BME280_pressure;Samples;Min_cycle;Max_cycle;Signal;HPM_P1;HPM_P2
2023/05/27 00:01:00;;;;;;;10.07;4.00;;;12.80;99.90;;;;;;5004868;28;20468;-84
2023/05/27 00:03:27;;;;;;;12.23;4.63;;;12.70;99.90;;;;;;5004312;28;20556;-85
2023/05/27 00:05:54;;;;;;;8.03;5.00;;;12.80;99.90;;;;;;5005422;28;20524;-86
2023/05/27 00:08:22;;;;;;;14.20;4.20;;;12.70;99.90;;;;;;5004556;28;20449;-85
2023/05/27 00:10:49;;;;;;;6.37;4.00;;;12.80;99.90;;;;;;5001356;28;20962;-84
2023/05/27 00:13:15;;;;;;;4.50;3.67;;;12.80;99.90;;;;;;5001474;28;20484;-85
2023/05/27 00:15:43;;;;;;;6.30;3.67;;;12.70;99.90;;;;;;5002850;28;20453;-85
2023/05/27 00:18:10;;;;;;;6.93;3.87;;;12.60;99.90;;;;;;5005234;28;20488;-85
2023/05/27 00:20:36;;;;;;;8.80;4.03;;;12.60;99.90;;;;;;5013177;28;20440;-86
2023/05/27 00:23:03;;;;;;;6.20;4.07;;;12.60;1.00;;;;;;5013828;28;20461;-85
2023/05/27 00:25:31;;;;;;;11.00;4.97;;;12.40;1.00;;;;;;5016697;28;20433;-84
2023/05/27 00:27:59;;;;;;;13.23;4.30;;;12.50;99.90;;;;;;5019813;28;20449;-84
2023/05/27 00:30:26;;;;;;;13.73;4.00;;;12.20;1.00;;;;;;5019105;28;20617;-84
2023/05/27 00:32:53;;;;;;;7.63;4.40;;;12.50;99.90;;;;;;5019219;28;20513;-86
2023/05/27 00:35:20;;;;;;;13.00;4.37;;;12.50;99.90;;;;;;5019711;28;20500;-85
2023/05/27 00:37:47;;;;;;;9.37;4.60;;;12.50;1.00;;;;;;5019675;28;20504;-85
2023/05/27 00:40:16;;;;;;;11.60;5.67;;;12.50;1.00;;;;;;5019723;28;20432;-86
2023/05/27 00:42:44;;;;;;;16.43;5.03;;;12.50;1.00;;;;;;5011034;28;20476;-86
2023/05/27 00:45:12;;;;;;;13.33;4.33;;;12.50;1.00;;;;;;5004896;28;20476;-85
2023/05/27 00:47:39;;;;;;;7.57;4.83;;;12.40;99.90;;;;;;5009780;28;20513;-85
2023/05/27 00:50:07;;;;;;;9.00;4.03;;;12.50;1.00;;;;;;5015408;28;20520;-85
2023/05/27 00:52:34;;;;;;;9.37;3.67;;;12.50;1.00;;;;;;5009604;28;20473;-86
2023/05/27 00:55:01;;;;;;;17.13;4.00;;;12.40;1.00;;;;;;5005078;28;20445;-84
2023/05/27 00:57:29;;;;;;;9.20;3.80;;;12.30;99.90;;;;;;5010191;28;20449;-86
2023/05/27 00:59:57;;;;;;;9.00;4.70;;;12.30;99.90;;;;;;5006683;28;20452;-86
2023/05/27 01:02:23;;;;;;;18.03;4.80;;;12.40;59.70;;;;;;5007056;28;20504;-85
2023/05/27 01:04:51;;;;;;;16.30;6.70;;;12.30;1.00;;;;;;5007757;28;20445;-85
2023/05/27 01:07:24;;;;;;;12.70;3.97;;;12.50;1.00;;;;;;5009885;28;20433;-85
2023/05/27 01:09:56;;;;;;;6.20;3.83;;;12.10;1.00;;;;;;5010452;28;20528;-85
2023/05/27 01:12:32;;;;;;;6.63;4.80;;;12.10;1.00;;;;;;5010134;28;20534;-86
2023/05/27 01:15:03;;;;;;;9.40;4.50;;;12.20;1.00;;;;;;5015333;28;20971;-85
2023/05/27 01:17:32;;;;;;;10.33;4.60;;;12.40;9.00;;;;;;5005892;28;20452;-85
2023/05/27 01:20:01;;;;;;;10.83;4.20;;;12.20;1.00;;;;;;5009306;28;20444;-84
2023/05/27 01:22:31;;;;;;;11.07;4.47;;;11.70;1.00;;;;;;4996575;28;20447;-84
2023/05/27 01:24:58;;;;;;;8.97;4.43;;;12.10;1.00;;;;;;4997351;28;20442;-84
2023/05/27 01:27:25;;;;;;;7.30;4.23;;;12.30;1.00;;;;;;4998297;28;20449;-85
2023/05/27 01:29:53;;;;;;;11.03;4.30;;;12.00;1.00;;;;;;5004375;28;20447;-86
2023/05/27 01:32:25;;;;;;;8.97;5.77;;;12.00;1.00;;;;;;5002937;28;20556;-85
2023/05/27 01:34:58;;;;;;;11.70;5.47;;;12.00;1.00;;;;;;5003394;28;20433;-85
2023/05/27 01:37:28;;;;;;;5.73;4.10;;;11.90;1.00;;;;;;5003831;28;20437;-86
2023/05/27 01:39:57;;;;;;;10.70;4.53;;;11.90;1.00;;;;;;5004663;28;20508;-86
2023/05/27 01:42:24;;;;;;;9.80;4.53;;;11.70;1.00;;;;;;5003523;28;20483;-85
2023/05/27 01:44:53;;;;;;;13.10;5.00;;;11.70;3.40;;;;;;5003082;28;20459;-85
2023/05/27 01:47:20;;;;;;;12.43;5.73;;;11.50;1.00;;;;;;5004092;28;20460;-85
2023/05/27 01:49:46;;;;;;;9.47;4.43;;;11.70;1.00;;;;;;5003879;28;20449;-85
2023/05/27 01:52:13;;;;;;;7.40;4.00;;;11.70;1.00;;;;;;4997593;28;20493;-85
2023/05/27 01:54:40;;;;;;;12.30;4.20;;;11.70;1.00;;;;;;4995769;28;20475;-84
2023/05/27 01:57:08;;;;;;;10.73;5.47;;;11.70;1.00;;;;;;4996227;28;20453;-85
2023/05/27 01:59:35;;;;;;;14.57;4.70;;;11.60;1.00;;;;;;4996920;28;20456;-84
2023/05/27 02:02:02;;;;;;;10.27;4.87;;;11.60;1.00;;;;;;4998910;28;20487;-84
2023/05/27 02:04:29;;;;;;;8.73;4.60;;;11.50;1.00;;;;;;5013773;28;20492;-84
2023/05/27 02:06:56;;;;;;;13.47;4.33;;;11.70;99.90;;;;;;5016813;28;20445;-84
2023/05/27 02:09:22;;;;;;;6.53;4.43;;;11.50;1.00;;;;;;5005084;28;20476;-85
2023/05/27 02:11:49;;;;;;;12.43;4.33;;;11.50;1.00;;;;;;5004510;28;20459;-85
2023/05/27 02:14:18;;;;;;;11.77;4.80;;;11.40;1.00;;;;;;5005427;28;20881;-86
2023/05/27 02:16:44;;;;;;;8.70;4.70;;;11.40;1.00;;;;;;5007614;28;20457;-85
2023/05/27 02:19:12;;;;;;;6.20;4.20;;;11.60;1.00;;;;;;5006626;28;20483;-86
2023/05/27 02:21:38;;;;;;;12.03;4.80;;;11.50;1.00;;;;;;5006895;28;20459;-85
2023/05/27 02:24:06;;;;;;;12.30;6.33;;;11.50;1.00;;;;;;5006949;28;20912;-85
2023/05/27 02:26:33;;;;;;;12.57;5.20;;;11.50;1.00;;;;;;5007083;28;20527;-85
2023/05/27 02:28:59;;;;;;;17.13;5.40;;;11.50;1.00;;;;;;5007081;28;20449;-86
2023/05/27 02:31:28;;;;;;;11.80;4.80;;;11.50;1.00;;;;;;5007320;28;20516;-86
2023/05/27 02:33:55;;;;;;;7.40;5.30;;;11.60;1.00;;;;;;5006173;28;20599;-85
2023/05/27 02:36:23;;;;;;;10.67;5.40;;;11.50;1.00;;;;;;5006200;28;20491;-86
2023/05/27 02:38:50;;;;;;;9.23;5.00;;;11.40;1.00;;;;;;5009254;28;20456;-86
2023/05/27 02:41:17;;;;;;;10.10;4.30;;;11.40;1.00;;;;;;5020284;28;20452;-85
2023/05/27 02:43:44;;;;;;;16.17;4.53;;;11.20;99.90;;;;;;5020720;28;20457;-85
2023/05/27 02:46:11;;;;;;;10.17;5.00;;;11.30;1.00;;;;;;5011089;28;20476;-85
2023/05/27 02:48:40;;;;;;;12.93;5.13;;;11.70;99.90;;;;;;5002555;28;20455;-85
2023/05/27 02:51:07;;;;;;;17.13;5.37;;;11.10;99.90;;;;;;5002752;28;20499;-85
2023/05/27 02:53:34;;;;;;;12.20;4.57;;;11.30;1.00;;;;;;5004083;28;20488;-85
2023/05/27 02:56:00;;;;;;;10.27;4.33;;;11.30;1.00;;;;;;5007475;28;20449;-85
2023/05/27 02:58:27;;;;;;;8.90;4.73;;;11.30;1.00;;;;;;4999381;28;20503;-85
2023/05/27 03:00:54;;;;;;;7.80;4.53;;;11.30;1.00;;;;;;4997179;28;20475;-85
2023/05/27 03:03:21;;;;;;;7.27;3.83;;;11.00;30.00;;;;;;4999065;28;20468;-85
2023/05/27 03:05:49;;;;;;;17.43;5.17;;;11.30;1.00;;;;;;5002792;28;20891;-84
2023/05/27 03:08:16;;;;;;;11.90;4.33;;;11.30;1.00;;;;;;5007044;28;20528;-84
2023/05/27 03:10:43;;;;;;;11.40;5.23;;;11.30;1.00;;;;;;5019353;28;20739;-83
2023/05/27 03:13:10;;;;;;;11.23;5.20;;;11.10;99.90;;;;;;5015527;28;20485;-85
2023/05/27 03:15:36;;;;;;;13.63;4.70;;;11.20;1.00;;;;;;5006465;28;20453;-84
2023/05/27 03:18:04;;;;;;;11.23;4.93;;;11.20;1.00;;;;;;5013854;28;20441;-83
2023/05/27 03:20:31;;;;;;;10.23;4.13;;;11.20;1.00;;;;;;5019020;28;20407;-83
2023/05/27 03:22:59;;;;;;;12.37;5.50;;;11.20;1.00;;;;;;5010016;28;20463;-86
2023/05/27 03:25:25;;;;;;;10.83;5.00;;;11.10;99.90;;;;;;5014811;28;20500;-85
2023/05/27 03:27:53;;;;;;;9.90;4.83;;;11.20;1.00;;;;;;5012081;28;20448;-85
2023/05/27 03:30:20;;;;;;;8.83;5.23;;;11.20;1.00;;;;;;5007169;28;20449;-86
2023/05/27 03:32:47;;;;;;;11.23;4.70;;;11.20;1.00;;;;;;5006304;28;20604;-86
2023/05/27 03:35:14;;;;;;;11.07;4.93;;;11.20;1.00;;;;;;5006486;28;20552;-85
2023/05/27 03:37:40;;;;;;;12.57;5.70;;;11.20;1.00;;;;;;5007536;28;20481;-86
2023/05/27 03:40:10;;;;;;;12.13;5.73;;;11.20;1.00;;;;;;5008096;28;20517;-86
2023/05/27 03:42:37;;;;;;;13.50;4.70;;;11.50;99.90;;;;;;5006299;28;20903;-87
2023/05/27 03:45:04;;;;;;;6.77;4.20;;;11.30;1.00;;;;;;5006854;28;20456;-85
2023/05/27 03:47:31;;;;;;;11.93;4.60;;;11.20;1.00;;;;;;5007472;28;20488;-86
2023/05/27 03:49:58;;;;;;;9.90;4.23;;;11.30;1.00;;;;;;5006202;28;20494;-85
2023/05/27 03:52:25;;;;;;;8.27;4.80;;;11.50;99.90;;;;;;5005577;28;21033;-85
2023/05/27 03:54:51;;;;;;;7.63;3.93;;;11.30;1.00;;;;;;5005697;28;20467;-86
2023/05/27 03:57:20;;;;;;;13.20;6.53;;;11.30;1.00;;;;;;5006006;28;20520;-86
2023/05/27 03:59:46;;;;;;;10.40;4.83;;;11.20;1.00;;;;;;5005533;28;20512;-85
2023/05/27 04:02:13;;;;;;;10.93;4.33;;;11.30;1.00;;;;;;5005522;28;20450;-86
2023/05/27 04:04:40;;;;;;;18.10;5.77;;;11.30;1.00;;;;;;5005324;28;20471;-85
2023/05/27 04:07:07;;;;;;;13.13;5.23;;;11.30;1.00;;;;;;5005581;28;20509;-85
2023/05/27 04:09:34;;;;;;;12.90;5.57;;;11.30;1.00;;;;;;5004263;28;20449;-84
2023/05/27 04:12:01;;;;;;;9.60;4.80;;;11.40;1.00;;;;;;5004552;28;20452;-85
2023/05/27 04:14:29;;;;;;;10.57;4.83;;;11.40;1.00;;;;;;5004047;28;20492;-85
2023/05/27 04:16:56;;;;;;;9.80;5.60;;;11.20;99.90;;;;;;5005232;28;20468;-85
2023/05/27 04:19:22;;;;;;;11.73;5.30;;;11.40;1.00;;;;;;5004494;28;20449;-85
2023/05/27 04:21:49;;;;;;;12.00;5.33;;;11.50;1.00;;;;;;5004058;28;20449;-85
2023/05/27 04:24:16;;;;;;;14.07;5.40;;;11.50;1.00;;;;;;5003603;28;20556;-85
2023/05/27 04:26:43;;;;;;;10.87;4.60;;;11.70;1.00;;;;;;5003868;28;20539;-85
2023/05/27 04:29:11;;;;;;;12.10;5.33;;;11.50;1.00;;;;;;5003983;28;20481;-85
2023/05/27 04:31:39;;;;;;;9.20;4.30;;;11.50;1.00;;;;;;5003806;28;20453;-85
2023/05/27 04:34:07;;;;;;;11.40;4.73;;;11.60;1.00;;;;;;5002653;28;20495;-85
2023/05/27 04:36:34;;;;;;;7.43;4.60;;;11.60;1.00;;;;;;5015163;28;20442;-84
2023/05/27 04:39:02;;;;;;;13.70;6.23;;;11.70;1.00;;;;;;5016800;28;20452;-85
2023/05/27 04:41:29;;;;;;;13.40;5.57;;;11.80;1.00;;;;;;5009639;28;20468;-85
2023/05/27 04:43:58;;;;;;;9.03;4.40;;;11.80;1.00;;;;;;5001734;28;20564;-85
2023/05/27 04:46:26;;;;;;;12.80;5.30;;;11.80;1.00;;;;;;5000987;28;20539;-84
2023/05/27 04:48:54;;;;;;;8.50;3.47;;;11.80;1.00;;;;;;5000171;28;20449;-85
2023/05/27 04:51:21;;;;;;;8.87;4.87;;;11.80;1.00;;;;;;4997492;28;20457;-85
2023/05/27 04:53:48;;;;;;;7.23;4.47;;;12.20;99.90;;;;;;4997560;28;20571;-84
2023/05/27 04:56:17;;;;;;;10.23;5.47;;;12.00;1.00;;;;;;5005769;28;20939;-84
2023/05/27 04:58:46;;;;;;;15.97;7.10;;;11.90;1.00;;;;;;5010721;28;20479;-85
2023/05/27 05:01:17;;;;;;;8.50;4.97;;;12.00;1.00;;;;;;5008588;28;20457;-84
2023/05/27 05:03:51;;;;;;;19.80;5.33;;;12.10;1.00;;;;;;5008710;28;20921;-84
2023/05/27 05:06:20;;;;;;;13.60;5.40;;;12.10;1.00;;;;;;5010667;28;20441;-84
2023/05/27 05:08:48;;;;;;;16.40;5.00;;;12.10;1.00;;;;;;5009553;28;20445;-84
2023/05/27 05:11:15;;;;;;;16.53;4.57;;;12.10;1.00;;;;;;5009329;28;20500;-83
2023/05/27 05:13:42;;;;;;;12.90;5.53;;;12.20;1.00;;;;;;5005555;28;20917;-85
2023/05/27 05:16:08;;;;;;;8.43;5.17;;;12.30;1.00;;;;;;5003644;28;20510;-84
2023/05/27 05:18:35;;;;;;;10.13;4.40;;;12.30;1.00;;;;;;5003941;28;20548;-84
2023/05/27 05:21:02;;;;;;;10.70;4.80;;;12.20;1.00;;;;;;5003258;28;20461;-85
2023/05/27 05:23:31;;;;;;;10.50;5.10;;;12.30;1.00;;;;;;5003356;28;20496;-85
2023/05/27 05:26:06;;;;;;;8.80;3.97;;;12.40;1.00;;;;;;5012605;28;20560;-84
2023/05/27 05:28:33;;;;;;;12.50;4.33;;;12.50;1.00;;;;;;4995787;28;20464;-84
2023/05/27 05:31:00;;;;;;;10.70;5.03;;;12.50;1.00;;;;;;4998636;28;20453;-84
2023/05/27 05:33:27;;;;;;;12.37;4.37;;;12.60;1.00;;;;;;4998858;28;20492;-83
2023/05/27 05:35:54;;;;;;;12.03;5.13;;;;;;;;;;5011425;28;20508;-83
2023/05/27 05:38:21;;;;;;;11.17;4.30;;;12.60;1.00;;;;;;5015986;28;20433;-84
2023/05/27 05:40:52;;;;;;;7.57;4.07;;;12.80;99.90;;;;;;5010916;28;20472;-83
2023/05/27 05:43:19;;;;;;;5.70;4.23;;;12.80;99.90;;;;;;5008931;28;20547;-83
2023/05/27 05:45:46;;;;;;;13.33;4.30;;;12.90;99.90;;;;;;5014092;28;20453;-83
2023/05/27 05:48:13;;;;;;;5.20;3.27;;;13.10;1.00;;;;;;5015037;28;20520;-83
2023/05/27 05:50:40;;;;;;;14.73;3.90;;;13.10;1.00;;;;;;5015680;28;20496;-83
2023/05/27 05:53:07;;;;;;;9.00;3.50;;;13.00;99.90;;;;;;5017768;28;20526;-83
2023/05/27 05:55:34;;;;;;;11.47;3.53;;;13.00;99.90;;;;;;5011979;28;20477;-84
2023/05/27 05:58:02;;;;;;;10.27;4.10;;;13.10;1.00;;;;;;5008815;28;20471;-84
2023/05/27 06:00:29;;;;;;;8.70;3.20;;;13.10;99.90;;;;;;5008561;28;20823;-84
2023/05/27 06:02:56;;;;;;;15.43;3.90;;;13.20;99.90;;;;;;5007711;28;20472;-84
2023/05/27 06:05:32;;;;;;;7.87;2.70;;;13.30;1.00;;;;;;5007463;28;20432;-84
2023/05/27 06:07:59;;;;;;;7.10;2.83;;;13.30;99.90;;;;;;5006832;28;20908;-83
2023/05/27 06:10:26;;;;;;;6.10;3.10;;;13.60;1.00;;;;;;5008131;28;20519;-84
2023/05/27 06:12:53;;;;;;;10.23;3.10;;;13.60;99.90;;;;;;5007815;28;20496;-85
2023/05/27 06:15:21;;;;;;;7.00;3.20;;;13.60;99.90;;;;;;5012937;28;20520;-84
2023/05/27 06:17:48;;;;;;;5.10;2.30;;;13.60;1.00;;;;;;5007363;28;20519;-83
2023/05/27 06:20:15;;;;;;;9.50;4.10;;;13.70;99.90;;;;;;5006932;28;20464;-83
2023/05/27 06:22:42;;;;;;;6.00;3.10;;;13.80;99.90;;;;;;5006637;28;20583;-83
2023/05/27 06:25:09;;;;;;;7.10;4.00;;;13.80;99.90;;;;;;5005660;28;20472;-84
2023/05/27 06:27:36;;;;;;;6.53;2.60;;;14.10;99.90;;;;;;5006290;28;20496;-84
2023/05/27 06:30:04;;;;;;;7.03;2.67;;;14.10;99.90;;;;;;5006027;28;20445;-84
2023/05/27 06:32:32;;;;;;;6.50;2.93;;;14.50;1.00;;;;;;5005995;28;20540;-85
2023/05/27 06:34:58;;;;;;;9.83;4.40;;;14.20;99.90;;;;;;5005914;28;20762;-84
2023/05/27 06:37:25;;;;;;;6.60;4.17;;;14.20;99.90;;;;;;5004796;28;20548;-84
2023/05/27 06:39:52;;;;;;;4.63;3.50;;;14.30;99.90;;;;;;5005953;28;20453;-84
2023/05/27 06:42:19;;;;;;;4.97;2.00;;;14.30;1.00;;;;;;5001973;28;20539;-84
2023/05/27 06:44:46;;;;;;;6.83;2.33;;;14.40;99.90;;;;;;4999400;28;20507;-84
2023/05/27 06:47:13;;;;;;;5.13;1.87;;;14.30;99.90;;;;;;5000308;28;20532;-84
2023/05/27 06:49:41;;;;;;;3.17;1.90;;;14.30;99.90;;;;;;5000693;28;20460;-84
2023/05/27 06:52:08;;;;;;;3.70;1.47;;;14.30;99.90;;;;;;5002894;28;20492;-84
2023/05/27 06:54:36;;;;;;;2.90;1.43;;;14.40;99.90;;;;;;5001070;28;20493;-85
2023/05/27 06:57:03;;;;;;;2.77;1.40;;;;;;;;;;5001330;28;20499;-85
2023/05/27 06:59:30;;;;;;;8.60;4.13;;;14.60;99.90;;;;;;5002413;28;20505;-85
2023/05/27 07:01:57;;;;;;;3.50;1.60;;;14.50;99.90;;;;;;5004117;28;20457;-84
2023/05/27 07:04:24;;;;;;;2.03;1.37;;;14.50;99.90;;;;;;5003405;28;20808;-84
2023/05/27 07:06:52;;;;;;;5.60;1.80;;;14.70;99.90;;;;;;5009137;28;20476;-84
2023/05/27 07:09:18;;;;;;;3.07;1.40;;;14.60;99.90;;;;;;5010013;28;20821;-84
2023/05/27 07:11:45;;;;;;;5.43;1.37;;;14.70;99.90;;;;;;5009627;28;20639;-85
2023/05/27 07:14:12;;;;;;;2.77;1.33;;;14.70;99.90;;;;;;5006372;28;20492;-85
2023/05/27 07:16:39;;;;;;;3.00;1.23;;;14.90;99.90;;;;;;5005964;28;20477;-84
2023/05/27 07:19:06;;;;;;;2.80;2.17;;;15.00;99.90;;;;;;5005830;28;20540;-84
2023/05/27 07:21:33;;;;;;;3.67;2.90;;;14.90;99.90;;;;;;5005294;28;20457;-84
2023/05/27 07:24:03;;;;;;;3.20;1.63;;;14.80;99.90;;;;;;5005896;28;20465;-84
2023/05/27 07:26:30;;;;;;;5.53;1.57;;;15.00;99.90;;;;;;5005682;28;20511;-84
2023/05/27 07:28:58;;;;;;;2.80;1.60;;;14.90;99.90;;;;;;5005075;28;20441;-84
2023/05/27 07:31:25;;;;;;;9.87;2.23;;;15.00;99.90;;;;;;5013602;28;20503;-84
2023/05/27 07:33:52;;;;;;;1.97;1.80;;;15.10;99.90;;;;;;5006002;28;20481;-85
2023/05/27 07:36:19;;;;;;;2.50;1.47;;;14.90;1.00;;;;;;5005591;28;20895;-85
2023/05/27 07:38:46;;;;;;;1.40;1.30;;;15.20;99.90;;;;;;5004840;28;20547;-85
2023/05/27 07:41:15;;;;;;;3.17;1.17;;;15.30;99.90;;;;;;5005229;28;20452;-85
2023/05/27 07:43:42;;;;;;;1.40;1.30;;;15.50;99.90;;;;;;5005546;28;20492;-85
2023/05/27 07:46:09;;;;;;;2.40;1.47;;;15.40;99.90;;;;;;5011023;28;20460;-85
2023/05/27 07:48:36;;;;;;;3.33;1.20;;;15.50;99.90;;;;;;5019065;28;20944;-85
2023/05/27 07:51:03;;;;;;;1.53;1.43;;;15.50;99.90;;;;;;5014303;28;20520;-85
2023/05/27 07:53:30;;;;;;;1.37;1.27;;;15.60;99.90;;;;;;5007369;28;20500;-85
2023/05/27 07:55:56;;;;;;;2.37;2.17;;;15.80;99.90;;;;;;5006056;28;20440;-84
2023/05/27 07:58:25;;;;;;;3.00;1.67;;;15.80;99.90;;;;;;5008089;28;20448;-84
2023/05/27 08:00:51;;;;;;;1.93;1.80;;;15.80;99.90;;;;;;5008293;28;20856;-85
2023/05/27 08:03:18;;;;;;;3.57;1.43;;;15.60;99.90;;;;;;5006879;28;20520;-85
2023/05/27 08:05:45;;;;;;;2.23;1.40;;;15.30;99.90;;;;;;5011544;28;20441;-85
2023/05/27 08:08:12;;;;;;;2.80;1.53;;;15.90;99.90;;;;;;5007547;28;20437;-85
2023/05/27 08:10:39;;;;;;;1.90;1.73;;;15.80;99.90;;;;;;5009722;28;20476;-85
2023/05/27 08:15:57;;;;;;;5.13;1.50;;;15.90;99.90;;;;;;4980988;28;20501;-89
2023/05/27 08:18:36;;;;;;;6.80;1.30;;;16.00;99.90;;;;;;4983231;28;20493;-88
2023/05/27 08:23:49;;;;;;;1.93;1.67;;;;;;;;;;4968141;28;20528;-88
2023/05/27 08:26:34;;;;;;;1.93;1.23;;;;;;;;;;4982347;28;20449;-89
2023/05/27 08:29:56;;;;;;;1.10;1.00;;;15.90;99.90;;;;;;5000097;28;20438;-89
2023/05/27 08:35:41;;;;;;;2.83;1.40;;;;;;;;;;4975144;28;20497;-88
2023/05/27 08:38:25;;;;;;;6.00;5.23;;;;;;;;;;4999672;28;20462;-89
2023/05/27 08:40:53;;;;;;;7.23;4.70;;;;;;;;;;4997603;28;20429;-89
2023/05/27 08:43:22;;;;;;;1.77;1.67;;;;;;;;;;4992706;28;21004;-89
2023/05/27 08:45:51;;;;;;;4.07;1.20;;;;;;;;;;4985851;28;20468;-88
2023/05/27 08:48:48;;;;;;;2.30;1.20;;;16.60;99.90;;;;;;4986393;28;20525;-88
2023/05/27 08:51:25;;;;;;;2.40;1.40;;;16.60;99.90;;;;;;4986244;28;20450;-88
2023/05/27 08:53:53;;;;;;;5.53;1.53;;;;;;;;;;4984451;28;20497;-88
2023/05/27 08:56:26;;;;;;;2.27;1.50;;;16.70;99.90;;;;;;4984255;28;20528;-88
2023/05/27 08:58:54;;;;;;;2.40;1.10;;;;;;;;;;4984345;28;20441;-88
2023/05/27 09:01:24;;;;;;;3.17;1.47;;;16.50;99.90;;;;;;4983892;28;20808;-88
2023/05/27 09:03:53;;;;;;;1.93;1.10;;;;;;;;;;4983544;28;20560;-88
2023/05/27 09:06:20;;;;;;;3.50;1.57;;;;;;;;;;4982261;28;20504;-89
2023/05/27 09:08:47;;;;;;;1.87;1.50;;;16.80;99.90;;;;;;4982113;28;20863;-88
2023/05/27 09:11:22;;;;;;;2.07;1.37;;;16.90;1.00;;;;;;4994606;28;20478;-88
2023/05/27 09:13:50;;;;;;;3.10;1.20;;;;;;;;;;4991445;28;20477;-88
2023/05/27 09:16:21;;;;;;;1.57;1.13;;;16.90;99.90;;;;;;4993460;28;20979;-88
2023/05/27 09:18:50;;;;;;;1.63;1.10;;;17.20;99.90;;;;;;4986970;28;20516;-88
2023/05/27 09:21:19;;;;;;;2.73;1.10;;;17.20;99.90;;;;;;4985925;28;20449;-89
2023/05/27 09:23:46;;;;;;;1.57;1.23;;;17.10;99.90;;;;;;4982306;28;20556;-88
2023/05/27 09:26:14;;;;;;;1.30;1.00;;;17.30;99.90;;;;;;4981279;28;20513;-88
2023/05/27 09:28:42;;;;;;;1.47;1.37;;;;;;;;;;4982690;28;20454;-88
2023/05/27 09:31:10;;;;;;;2.10;1.90;;;17.20;99.90;;;;;;4987377;28;20460;-88
2023/05/27 09:33:40;;;;;;;2.43;1.60;;;17.30;99.90;;;;;;4983491;28;20497;-86
2023/05/27 09:36:12;;;;;;;1.20;1.10;;;17.20;99.90;;;;;;4981935;28;20466;-88
2023/05/27 09:38:43;;;;;;;1.50;1.27;;;;;;;;;;4989596;28;20461;-88
2023/05/27 09:41:10;;;;;;;1.33;1.23;;;;;;;;;;4984841;28;20481;-88
2023/05/27 09:43:38;;;;;;;1.50;1.23;;;;;;;;;;4982353;28;20482;-88
2023/05/27 10:11:56;;;;;;;2.70;1.70;;;17.90;99.90;;;;;;4137664;26;20517;-89
2023/05/27 10:24:34;;;;;;;1.87;1.77;;;18.00;99.90;;;;;;4979944;28;20984;-87
2023/05/27 10:27:03;;;;;;;1.80;1.70;;;18.00;99.90;;;;;;4981112;28;20458;-88
2023/05/27 10:29:37;;;;;;;4.07;1.90;;;18.00;99.90;;;;;;4993623;28;20441;-87
2023/05/27 10:32:05;;;;;;;3.13;1.57;;;18.30;1.00;;;;;;4995791;28;20413;-86
2023/05/27 10:34:35;;;;;;;2.80;1.87;;;18.00;99.90;;;;;;4984742;28;20521;-87
2023/05/27 10:37:02;;;;;;;2.83;1.80;;;18.10;99.90;;;;;;5002178;28;20441;-86
2023/05/27 10:39:29;;;;;;;2.87;2.33;;;17.90;99.90;;;;;;4994372;28;20444;-86
2023/05/27 10:41:58;;;;;;;3.50;2.43;;;18.40;99.90;;;;;;4991898;28;20449;-86
2023/05/27 10:44:29;;;;;;;4.20;1.97;;;18.20;99.90;;;;;;4990960;28;20457;-87
2023/05/27 10:47:01;;;;;;;3.97;2.20;;;18.30;99.90;;;;;;5001971;28;20434;-87
2023/05/27 10:49:35;;;;;;;5.60;1.93;;;18.30;99.90;;;;;;5002031;28;20439;-86
2023/05/27 10:52:06;;;;;;;2.40;2.13;;;18.20;1.00;;;;;;4995115;28;20462;-86
2023/05/27 10:54:35;;;;;;;2.83;2.00;;;18.50;99.90;;;;;;4982190;28;20505;-87
2023/05/27 10:57:22;;;;;;;2.97;2.07;;;18.50;99.90;;;;;;4981802;28;20456;-88
2023/05/27 10:59:50;;;;;;;1.90;1.77;;;18.60;99.90;;;;;;4982753;28;20485;-88
2023/05/27 11:02:17;;;;;;;4.50;1.87;;;18.60;1.00;;;;;;4983617;28;20528;-88
2023/05/27 11:04:45;;;;;;;1.80;1.70;;;;;;;;;;4989340;28;20521;-88
2023/05/27 11:07:12;;;;;;;1.87;1.40;;;18.50;99.90;;;;;;4989875;28;20445;-88
2023/05/27 11:09:45;;;;;;;3.20;1.93;;;18.60;99.90;;;;;;4993428;28;20501;-88
2023/05/27 11:12:17;;;;;;;1.37;1.27;;;18.60;99.90;;;;;;4980718;28;20998;-88
2023/05/27 11:14:44;;;;;;;1.57;1.47;;;18.60;99.90;;;;;;4980272;28;20474;-88
2023/05/27 11:17:11;;;;;;;2.00;1.80;;;18.50;1.00;;;;;;4981186;28;20959;-88
2023/05/27 11:19:40;;;;;;;3.80;1.90;;;18.50;99.90;;;;;;4980727;28;20941;-88
2023/05/27 11:22:08;;;;;;;3.20;2.33;;;18.70;1.00;;;;;;4978818;28;20461;-88
2023/05/27 11:24:36;;;;;;;2.17;1.73;;;18.60;99.90;;;;;;4979123;28;20449;-88
2023/05/27 11:27:09;;;;;;;3.60;2.60;;;18.70;99.90;;;;;;4979471;28;20458;-88
2023/05/27 11:29:38;;;;;;;5.43;2.77;;;18.70;99.90;;;;;;4979035;28;20442;-88
2023/05/27 11:32:06;;;;;;;3.17;1.90;;;19.30;1.00;;;;;;4979885;28;20450;-88
2023/05/27 11:34:35;;;;;;;3.30;2.37;;;19.10;99.90;;;;;;4980129;28;20446;-87
2023/05/27 11:37:04;;;;;;;2.90;1.90;;;;;;;;;;4979353;28;20928;-87
2023/05/27 11:39:33;;;;;;;3.47;2.77;;;19.20;99.90;;;;;;4979196;28;20454;-88
2023/05/27 11:42:00;;;;;;;2.40;2.13;;;18.90;1.00;;;;;;4984303;28;20513;-89
2023/05/27 11:44:27;;;;;;;3.43;3.00;;;19.30;99.90;;;;;;4989632;28;20542;-87
2023/05/27 11:47:01;;;;;;;3.07;2.80;;;19.40;99.90;;;;;;4981338;28;20960;-87
2023/05/27 11:49:29;;;;;;;2.33;2.13;;;19.30;99.90;;;;;;4982074;28;20503;-88
2023/05/27 11:51:57;;;;;;;1.80;1.70;;;19.30;1.00;;;;;;4979223;28;20462;-88
2023/05/27 11:54:27;;;;;;;1.70;1.60;;;19.40;99.90;;;;;;4981235;28;20442;-88
2023/05/27 11:56:54;;;;;;;7.87;2.67;;;19.10;1.00;;;;;;4979216;28;20470;-87
2023/05/27 11:59:22;;;;;;;6.47;2.03;;;19.40;99.90;;;;;;4979278;28;20505;-88
2023/05/27 12:01:49;;;;;;;2.00;1.80;;;19.50;99.90;;;;;;4978841;28;20485;-88
2023/05/27 12:04:18;;;;;;;2.83;2.00;;;19.40;99.90;;;;;;4978664;28;20450;-88
2023/05/27 12:06:47;;;;;;;1.90;1.80;;;19.40;99.90;;;;;;4979086;28;20461;-88
2023/05/27 12:09:14;;;;;;;2.13;1.67;;;19.30;99.90;;;;;;4981117;28;20450;-88
2023/05/27 12:11:42;;;;;;;3.43;2.00;;;19.40;99.90;;;;;;4982000;28;20457;-87
2023/05/27 12:14:09;;;;;;;4.17;2.00;;;19.40;99.90;;;;;;4981721;28;20470;-87
2023/05/27 12:16:36;;;;;;;2.20;1.67;;;19.40;99.90;;;;;;4980257;28;21032;-87
2023/05/27 12:19:03;;;;;;;2.37;1.63;;;19.40;99.90;;;;;;4980151;28;20975;-87
2023/05/27 12:21:32;;;;;;;6.20;2.63;;;19.40;99.90;;;;;;4978743;28;20532;-88
2023/05/27 12:23:59;;;;;;;5.33;2.23;;;19.50;99.90;;;;;;4979043;28;20536;-88
2023/05/27 12:26:26;;;;;;;4.37;2.10;;;19.30;1.00;;;;;;4990523;28;20476;-87
2023/05/27 12:28:52;;;;;;;3.13;2.00;;;19.50;99.90;;;;;;4990750;28;20525;-87
2023/05/27 12:31:19;;;;;;;1.60;1.37;;;19.60;99.90;;;;;;4987830;28;20533;-87
2023/05/27 12:33:46;;;;;;;1.83;1.60;;;19.60;99.90;;;;;;4980664;28;20477;-87
2023/05/27 12:36:13;;;;;;;4.73;3.40;;;19.70;99.90;;;;;;4988853;28;20466;-88
2023/05/27 12:38:41;;;;;;;3.43;2.00;;;19.60;99.90;;;;;;4999420;28;20450;-88
2023/05/27 12:41:08;;;;;;;2.20;2.00;;;19.90;1.00;;;;;;4999995;28;20465;-88
2023/05/27 12:43:35;;;;;;;3.83;2.20;;;19.70;99.90;;;;;;4999338;28;20485;-87
2023/05/27 12:46:02;;;;;;;2.80;1.53;;;19.80;99.90;;;;;;4999684;28;20457;-87
2023/05/27 12:48:29;;;;;;;2.70;1.80;;;;;;;;;;4999877;28;20438;-88
2023/05/27 12:50:56;;;;;;;2.50;2.23;;;20.10;99.90;;;;;;4999929;28;20426;-88
2023/05/27 12:53:24;;;;;;;7.13;2.20;;;20.10;99.90;;;;;;4992905;28;20525;-87
2023/05/27 12:55:52;;;;;;;2.00;1.90;;;20.20;99.90;;;;;;4983286;28;20481;-88
2023/05/27 12:58:19;;;;;;;2.07;1.87;;;20.20;99.90;;;;;;4982365;28;20446;-89
2023/05/27 13:00:46;;;;;;;3.40;2.00;;;20.30;99.90;;;;;;4985680;28;20869;-88
2023/05/27 13:03:13;;;;;;;3.03;1.60;;;20.40;99.90;;;;;;4983085;28;20489;-87
2023/05/27 13:05:40;;;;;;;3.47;2.27;;;;;;;;;;4983050;28;20446;-87
2023/05/27 13:08:08;;;;;;;2.17;2.00;;;19.90;1.00;;;;;;4982508;28;20527;-88
2023/05/27 13:10:34;;;;;;;3.00;1.57;;;20.20;99.90;;;;;;4981957;28;20878;-87
2023/05/27 13:13:03;;;;;;;1.80;1.10;;;20.20;99.90;;;;;;4979570;28;20553;-87
2023/05/27 13:15:31;;;;;;;2.53;1.90;;;20.20;99.90;;;;;;4979635;28;20492;-88
2023/05/27 13:17:58;;;;;;;4.33;2.30;;;20.10;99.90;;;;;;4979033;28;20477;-87
2023/05/27 13:20:28;;;;;;;5.50;2.40;;;20.30;99.90;;;;;;4979358;28;20452;-86
2023/05/27 13:22:59;;;;;;;6.73;2.37;;;20.20;99.90;;;;;;4979138;28;20493;-87
2023/05/27 13:25:26;;;;;;;4.10;2.80;;;20.30;99.90;;;;;;4979163;28;20442;-87
2023/05/27 13:27:54;;;;;;;2.50;2.00;;;20.30;99.90;;;;;;4979465;28;20485;-87
2023/05/27 13:30:23;;;;;;;3.03;2.00;;;20.40;1.00;;;;;;4978628;28;20513;-86
2023/05/27 13:32:50;;;;;;;1.63;1.53;;;20.50;99.90;;;;;;4979095;28;21006;-88
2023/05/27 13:35:18;;;;;;;3.30;2.10;;;20.30;99.90;;;;;;4979558;28;20943;-87
2023/05/27 13:37:45;;;;;;;2.57;1.60;;;20.50;99.90;;;;;;4978740;28;20946;-87
2023/05/27 13:40:12;;;;;;;2.40;1.70;;;20.60;99.90;;;;;;4985786;28;20484;-87
2023/05/27 13:42:40;;;;;;;1.60;1.50;;;20.50;99.90;;;;;;4998342;28;20454;-87
2023/05/27 13:45:08;;;;;;;1.90;1.70;;;20.30;99.90;;;;;;4992419;28;20481;-87